Time;durP1;ratioP1;P1;durP2;ratioP2;P2;SDS_P1;SDS_P2;PMS_P1;PMS_P2;Temp;Humidity;BMP_temperature;BMP_pressure;BME280_temperature;BME280_humidity;BME280_pressure;Samples;Min_cycle;Max_cycle;Signal;HPM_P1;HPM_P2
2022/03/30 00:02:02;;;;;;;13.27;11.17;;;15.30;70.30;;;;;;4993971;28;20445;-69
2022/03/30 00:04:31;;;;;;;13.53;9.87;;;15.30;70.30;;;;;;4993987;28;20430;-69
2022/03/30 00:06:59;;;;;;;11.90;9.77;;;15.30;70.30;;;;;;5012035;28;20437;-68
2022/03/30 00:09:28;;;;;;;14.73;10.80;;;15.30;70.20;;;;;;4993939;28;20509;-69
2022/03/30 00:11:56;;;;;;;9.43;8.43;;;15.30;70.20;;;;;;5011884;28;20441;-69
2022/03/30 00:14:25;;;;;;;9.87;8.90;;;15.30;70.30;;;;;;5012906;28;20461;-69
2022/03/30 00:16:53;;;;;;;9.97;7.87;;;15.30;70.50;;;;;;5006085;28;20536;-69
2022/03/30 00:19:21;;;;;;;14.30;9.17;;;15.30;70.70;;;;;;4993846;28;20482;-69
2022/03/30 00:21:49;;;;;;;10.80;9.63;;;15.30;70.60;;;;;;5012157;28;20452;-68
2022/03/30 00:24:18;;;;;;;12.07;9.80;;;15.30;70.70;;;;;;4993762;28;20450;-69
2022/03/30 00:26:47;;;;;;;14.43;11.07;;;15.30;70.70;;;;;;5010493;28;20575;-68
2022/03/30 00:29:15;;;;;;;12.87;9.90;;;15.30;70.60;;;;;;5013038;28;20422;-69
2022/03/30 00:31:43;;;;;;;13.83;10.77;;;15.30;70.50;;;;;;5009096;28;20566;-68
2022/03/30 00:34:11;;;;;;;12.67;10.40;;;15.30;70.50;;;;;;5012719;28;20444;-69
2022/03/30 00:36:39;;;;;;;14.47;10.67;;;15.30;70.50;;;;;;5012804;28;20469;-69
2022/03/30 00:39:08;;;;;;;13.93;10.00;;;15.30;70.50;;;;;;5003148;28;20854;-68
2022/03/30 00:41:36;;;;;;;11.33;9.97;;;15.30;70.50;;;;;;5012769;28;20460;-69
2022/03/30 00:44:12;;;;;;;13.23;11.00;;;15.30;70.40;;;;;;5012934;28;20461;-68
2022/03/30 00:46:44;;;;;;;11.27;9.10;;;15.30;70.50;;;;;;5003798;28;20503;-68
2022/03/30 00:49:13;;;;;;;12.23;10.67;;;15.30;70.50;;;;;;5011840;28;20527;-69
2022/03/30 00:51:41;;;;;;;11.73;10.03;;;15.30;70.40;;;;;;5012787;28;20522;-68
2022/03/30 00:54:10;;;;;;;10.80;8.90;;;15.30;70.50;;;;;;5001548;28;20535;-69
2022/03/30 00:56:40;;;;;;;12.80;9.80;;;15.30;70.50;;;;;;5012300;28;21020;-67
2022/03/30 00:59:11;;;;;;;10.90;8.97;;;15.30;70.50;;;;;;5012989;28;20848;-68
2022/03/30 01:01:39;;;;;;;13.87;11.43;;;15.30;70.70;;;;;;5012344;28;20885;-69
2022/03/30 01:04:08;;;;;;;11.80;10.03;;;15.30;70.60;;;;;;4998505;28;20460;-69
2022/03/30 01:06:36;;;;;;;11.77;10.43;;;15.30;70.50;;;;;;5011770;28;20527;-69
2022/03/30 01:09:04;;;;;;;11.57;10.13;;;15.30;70.70;;;;;;4998904;28;20498;-68
2022/03/30 01:11:32;;;;;;;11.07;9.43;;;15.30;70.70;;;;;;5012192;28;20971;-67
2022/03/30 01:14:00;;;;;;;12.93;9.03;;;15.30;70.60;;;;;;5012589;28;20509;-69
2022/03/30 01:16:33;;;;;;;10.60;9.50;;;15.30;70.80;;;;;;5018135;28;20539;-69
2022/03/30 01:19:05;;;;;;;11.03;8.60;;;15.30;70.90;;;;;;4997862;28;20425;-69
2022/03/30 01:21:35;;;;;;;11.83;9.80;;;15.30;70.90;;;;;;5012145;28;20522;-69
2022/03/30 01:24:03;;;;;;;10.80;9.70;;;15.20;70.70;;;;;;4996827;28;20858;-68
2022/03/30 01:26:31;;;;;;;10.60;9.07;;;15.30;70.90;;;;;;5011737;28;20500;-68
2022/03/30 01:28:59;;;;;;;9.13;8.07;;;15.20;70.90;;;;;;5012397;28;20421;-69
2022/03/30 01:34:13;;;;;;;12.33;9.00;;;15.30;71.10;;;;;;4992549;28;20536;-68
2022/03/30 01:36:43;;;;;;;12.07;10.83;;;15.20;71.00;;;;;;5006268;28;20464;-69
2022/03/30 01:39:12;;;;;;;12.47;8.63;;;15.20;71.00;;;;;;4993126;28;20438;-67
2022/03/30 01:41:40;;;;;;;11.20;9.53;;;15.20;71.00;;;;;;5005802;28;20477;-69
2022/03/30 01:44:08;;;;;;;11.70;8.83;;;15.20;71.00;;;;;;5011871;28;20792;-67
2022/03/30 01:46:39;;;;;;;8.50;7.00;;;15.20;71.20;;;;;;4999376;28;20473;-68
2022/03/30 01:49:07;;;;;;;10.63;9.63;;;15.20;71.50;;;;;;4992785;28;20418;-68
2022/03/30 01:51:35;;;;;;;11.33;9.17;;;15.20;71.40;;;;;;5003359;28;20898;-68
2022/03/30 01:54:05;;;;;;;11.07;9.83;;;15.20;71.30;;;;;;4993864;28;20879;-68
2022/03/30 01:56:33;;;;;;;9.80;8.43;;;15.20;71.30;;;;;;5004172;28;21007;-68
2022/03/30 01:59:01;;;;;;;11.93;9.50;;;15.20;71.30;;;;;;5012096;28;20491;-68
2022/03/30 02:01:29;;;;;;;10.13;8.90;;;15.20;71.40;;;;;;5003329;28;20513;-67
2022/03/30 02:04:00;;;;;;;10.27;8.90;;;15.20;71.50;;;;;;4995852;28;20456;-69
2022/03/30 02:06:28;;;;;;;9.87;8.70;;;15.20;71.50;;;;;;5010144;28;20473;-69
2022/03/30 02:08:56;;;;;;;11.20;9.10;;;15.20;71.40;;;;;;4997756;28;20437;-69
2022/03/30 02:11:26;;;;;;;10.10;6.57;;;15.20;71.50;;;;;;5011139;28;20540;-68
2022/03/30 02:13:55;;;;;;;8.93;7.53;;;15.20;71.60;;;;;;5011764;28;20804;-68
2022/03/30 02:16:24;;;;;;;7.53;6.70;;;15.20;71.70;;;;;;5011081;28;20550;-69
2022/03/30 02:18:52;;;;;;;8.03;7.23;;;15.20;71.80;;;;;;4995782;28;20442;-68
2022/03/30 02:21:21;;;;;;;10.83;9.73;;;15.20;71.80;;;;;;5011427;28;21045;-69
2022/03/30 02:23:49;;;;;;;10.60;9.60;;;15.20;71.70;;;;;;4995524;28;20465;-69
2022/03/30 02:26:18;;;;;;;9.60;8.63;;;15.10;71.60;;;;;;5010040;28;20519;-68
2022/03/30 02:28:51;;;;;;;11.50;10.03;;;15.20;71.70;;;;;;5011740;28;20459;-69
2022/03/30 02:31:20;;;;;;;10.70;9.60;;;15.20;71.70;;;;;;4999869;28;20468;-68
2022/03/30 02:33:48;;;;;;;10.70;9.60;;;15.10;71.50;;;;;;4999031;28;20939;-68
2022/03/30 02:36:17;;;;;;;10.47;8.67;;;15.10;71.50;;;;;;5010453;28;20641;-68
2022/03/30 02:38:45;;;;;;;8.50;7.57;;;15.10;71.50;;;;;;5002463;28;20449;-69
2022/03/30 02:41:14;;;;;;;9.83;7.20;;;15.10;71.80;;;;;;5011286;28;20551;-68
2022/03/30 02:43:42;;;;;;;9.20;7.93;;;15.10;71.90;;;;;;5011399;28;20449;-68
2022/03/30 02:46:11;;;;;;;10.07;8.17;;;15.10;72.00;;;;;;5002945;28;20541;-69
2022/03/30 02:48:40;;;;;;;9.37;8.40;;;15.10;72.00;;;;;;5000328;28;20495;-68
2022/03/30 02:51:09;;;;;;;10.20;7.83;;;15.10;72.00;;;;;;5010010;28;20461;-68
2022/03/30 02:53:37;;;;;;;11.33;9.63;;;15.10;72.00;;;;;;5004813;28;20500;-68
2022/03/30 02:56:06;;;;;;;9.13;8.17;;;15.10;71.90;;;;;;5010830;28;20508;-69
2022/03/30 02:58:34;;;;;;;10.20;8.83;;;15.10;72.00;;;;;;5015118;28;20483;-68
2022/03/30 03:01:03;;;;;;;9.97;8.17;;;15.10;71.90;;;;;;5010139;28;21009;-69
2022/03/30 03:03:32;;;;;;;12.03;9.07;;;15.10;71.90;;;;;;5001926;28;20551;-69
2022/03/30 03:06:00;;;;;;;9.83;8.70;;;15.10;72.00;;;;;;5014131;28;20980;-68
2022/03/30 03:08:28;;;;;;;11.47;9.00;;;15.10;72.00;;;;;;5005624;28;20472;-68
2022/03/30 03:10:57;;;;;;;12.20;9.00;;;15.10;72.00;;;;;;5014462;28;20477;-68
2022/03/30 03:13:26;;;;;;;11.07;9.57;;;15.10;71.80;;;;;;5014706;28;20507;-68
2022/03/30 03:15:54;;;;;;;10.63;8.50;;;15.10;71.70;;;;;;5013824;28;20468;-68
2022/03/30 03:18:22;;;;;;;10.80;8.70;;;15.10;71.80;;;;;;4998172;28;20533;-69
2022/03/30 03:20:51;;;;;;;10.27;8.77;;;15.10;71.60;;;;;;5011301;28;20461;-69
2022/03/30 03:23:20;;;;;;;10.10;8.87;;;15.10;71.80;;;;;;5013214;28;21033;-67
2022/03/30 03:25:48;;;;;;;12.27;8.27;;;15.00;71.80;;;;;;5014088;28;20897;-68
2022/03/30 03:28:16;;;;;;;10.47;8.70;;;15.00;71.70;;;;;;5014395;28;20483;-68
2022/03/30 03:30:44;;;;;;;11.10;7.80;;;15.00;71.70;;;;;;5014374;28;20468;-68
2022/03/30 03:33:12;;;;;;;9.57;8.40;;;15.00;71.80;;;;;;5003316;28;20962;-69
2022/03/30 03:35:40;;;;;;;11.50;8.50;;;15.10;71.90;;;;;;5013643;28;20530;-68
2022/03/30 03:38:11;;;;;;;14.63;10.13;;;15.00;71.70;;;;;;5007863;28;20469;-68
2022/03/30 03:40:40;;;;;;;11.33;9.57;;;15.00;71.70;;;;;;5013870;28;20519;-70
2022/03/30 03:43:09;;;;;;;10.10;8.20;;;15.00;71.70;;;;;;5014116;28;20453;-68
2022/03/30 03:45:38;;;;;;;9.50;7.60;;;15.00;71.90;;;;;;5006141;28;20608;-69
2022/03/30 03:48:07;;;;;;;10.27;9.27;;;15.00;71.80;;;;;;4999139;28;20452;-69
2022/03/30 03:50:35;;;;;;;12.80;9.13;;;15.00;71.80;;;;;;5012648;28;20822;-68
2022/03/30 03:53:03;;;;;;;10.47;9.40;;;15.00;72.00;;;;;;5004141;28;20986;-68
2022/03/30 03:55:36;;;;;;;10.03;8.97;;;15.00;71.80;;;;;;5002713;28;20978;-69
2022/03/30 03:58:05;;;;;;;11.27;9.47;;;15.00;71.80;;;;;;5014165;28;20468;-68
2022/03/30 04:00:34;;;;;;;8.70;7.80;;;15.00;71.80;;;;;;5008639;28;20477;-68
2022/03/30 04:03:03;;;;;;;11.77;8.03;;;15.00;71.90;;;;;;5003983;28;20823;-68
2022/03/30 04:05:32;;;;;;;9.20;8.30;;;15.00;72.00;;;;;;5012143;28;20523;-69
2022/03/30 04:08:00;;;;;;;9.97;8.60;;;15.00;73.30;;;;;;5003776;28;20441;-68
2022/03/30 04:10:28;;;;;;;9.00;7.80;;;15.00;72.10;;;;;;5015047;28;21029;-68
2022/03/30 04:12:58;;;;;;;9.83;8.83;;;15.00;72.20;;;;;;5012537;28;20986;-68
2022/03/30 04:15:26;;;;;;;10.37;8.70;;;15.00;72.20;;;;;;5013093;28;20828;-69
2022/03/30 04:17:57;;;;;;;11.80;9.10;;;15.00;72.20;;;;;;5000807;28;20501;-69
2022/03/30 04:20:25;;;;;;;10.57;8.60;;;15.00;72.20;;;;;;5010323;28;20456;-68
2022/03/30 04:22:53;;;;;;;9.63;8.30;;;15.00;72.20;;;;;;5011631;28;20890;-68
2022/03/30 04:25:22;;;;;;;9.17;8.00;;;14.90;72.20;;;;;;5012941;28;21057;-69
2022/03/30 04:27:52;;;;;;;10.00;8.97;;;15.00;72.20;;;;;;5012913;28;20438;-69
2022/03/30 04:30:23;;;;;;;10.40;8.20;;;14.90;72.20;;;;;;5012494;28;20503;-68
2022/03/30 04:32:51;;;;;;;13.03;7.93;;;15.00;72.20;;;;;;5008164;28;20565;-68
2022/03/30 04:35:24;;;;;;;10.17;8.83;;;15.00;72.30;;;;;;5012527;28;20994;-68
2022/03/30 04:37:54;;;;;;;13.00;8.83;;;14.90;72.10;;;;;;5011574;28;20460;-68
2022/03/30 04:40:23;;;;;;;8.93;7.80;;;14.90;72.10;;;;;;5013078;28;20874;-68
2022/03/30 04:42:51;;;;;;;11.17;8.50;;;14.90;72.20;;;;;;5012360;28;20457;-69
2022/03/30 04:45:20;;;;;;;9.00;7.87;;;14.90;72.20;;;;;;5007478;28;21061;-68
2022/03/30 04:47:50;;;;;;;9.80;8.13;;;14.90;72.20;;;;;;5005290;28;20464;-69
2022/03/30 04:50:23;;;;;;;11.40;8.20;;;14.90;72.20;;;;;;5012831;28;20464;-69
2022/03/30 04:52:52;;;;;;;8.67;7.87;;;14.90;72.30;;;;;;5004564;28;20605;-69
2022/03/30 04:55:20;;;;;;;8.10;7.10;;;14.90;72.30;;;;;;4993014;28;20461;-68
2022/03/30 04:57:48;;;;;;;8.93;8.03;;;14.90;72.40;;;;;;5003665;28;20457;-69
2022/03/30 05:00:17;;;;;;;9.73;8.37;;;14.90;72.40;;;;;;5006894;28;20991;-69
2022/03/30 05:02:49;;;;;;;8.90;7.30;;;14.90;72.40;;;;;;5002791;28;20480;-69
2022/03/30 05:05:18;;;;;;;8.67;7.77;;;14.90;72.20;;;;;;5012588;28;20469;-69
2022/03/30 05:07:46;;;;;;;7.80;6.93;;;14.90;72.20;;;;;;5005215;28;20634;-70
2022/03/30 05:10:15;;;;;;;9.77;8.00;;;14.80;72.10;;;;;;4992706;28;20882;-68
2022/03/30 05:12:44;;;;;;;8.83;7.80;;;14.80;72.10;;;;;;5007199;28;20507;-69
2022/03/30 05:15:12;;;;;;;9.03;6.87;;;14.80;72.10;;;;;;5011270;28;20473;-68
2022/03/30 05:17:43;;;;;;;8.40;7.50;;;14.80;72.20;;;;;;4993023;28;20982;-69
2022/03/30 05:20:14;;;;;;;8.77;7.87;;;14.80;72.10;;;;;;4998602;28;20519;-68
2022/03/30 05:22:43;;;;;;;10.70;9.00;;;14.80;72.10;;;;;;5009933;28;20539;-69
2022/03/30 05:25:12;;;;;;;11.60;10.40;;;14.80;72.10;;;;;;5011800;28;20568;-69
2022/03/30 05:27:41;;;;;;;11.00;8.70;;;14.80;72.00;;;;;;5012228;28;20979;-67
2022/03/30 05:30:10;;;;;;;11.60;9.00;;;14.80;72.00;;;;;;5012121;28;21032;-69
2022/03/30 05:32:40;;;;;;;11.53;8.40;;;14.80;72.10;;;;;;5004857;28;20469;-67
2022/03/30 05:35:08;;;;;;;11.33;8.90;;;14.80;73.40;;;;;;5011715;28;20531;-68
2022/03/30 05:37:38;;;;;;;9.63;8.70;;;14.80;72.10;;;;;;5009220;28;20464;-67
2022/03/30 05:40:07;;;;;;;9.47;8.03;;;14.80;72.10;;;;;;5011926;28;20564;-69
2022/03/30 05:42:36;;;;;;;10.10;8.60;;;14.80;72.00;;;;;;5012430;28;20835;-70
2022/03/30 05:45:05;;;;;;;9.17;7.23;;;14.80;72.00;;;;;;5009359;28;20530;-69
2022/03/30 05:47:33;;;;;;;7.83;6.97;;;14.80;72.10;;;;;;5011937;28;21135;-68
2022/03/30 05:50:02;;;;;;;8.27;7.43;;;14.80;72.00;;;;;;5011743;28;20974;-68
2022/03/30 05:52:31;;;;;;;11.17;8.90;;;14.80;71.90;;;;;;5010966;28;20464;-69
2022/03/30 05:55:00;;;;;;;12.50;7.77;;;14.80;72.00;;;;;;5026743;28;20866;-68
2022/03/30 05:57:28;;;;;;;10.13;8.57;;;14.80;72.00;;;;;;5012520;28;20457;-68
2022/03/30 05:59:58;;;;;;;8.23;7.30;;;14.80;72.10;;;;;;5011664;28;20453;-69
2022/03/30 06:02:26;;;;;;;9.27;7.90;;;14.80;72.00;;;;;;5001620;28;20473;-68
2022/03/30 06:04:56;;;;;;;8.70;7.60;;;14.80;72.10;;;;;;4992011;28;20446;-69
2022/03/30 06:07:24;;;;;;;10.07;8.13;;;14.70;72.00;;;;;;4992458;28;20445;-69
2022/03/30 06:09:52;;;;;;;9.13;7.90;;;14.70;72.00;;;;;;4994305;28;20480;-69
2022/03/30 06:12:23;;;;;;;10.67;9.00;;;14.70;72.10;;;;;;5025927;28;20476;-69
2022/03/30 06:14:52;;;;;;;12.10;7.20;;;14.70;72.00;;;;;;5010805;28;20885;-69
2022/03/30 06:17:21;;;;;;;9.17;8.20;;;14.70;72.20;;;;;;5006656;28;20446;-68
2022/03/30 06:19:51;;;;;;;9.17;8.20;;;14.70;72.20;;;;;;5004781;28;20510;-68
2022/03/30 06:22:20;;;;;;;8.57;7.27;;;14.70;72.30;;;;;;5006470;28;20536;-69
2022/03/30 06:24:49;;;;;;;8.50;7.57;;;14.70;72.10;;;;;;5009612;28;20453;-67
2022/03/30 06:27:18;;;;;;;9.63;7.63;;;14.70;72.20;;;;;;5006683;28;20483;-68
2022/03/30 06:29:47;;;;;;;9.50;7.90;;;14.70;72.20;;;;;;5009801;28;20870;-68
2022/03/30 06:32:15;;;;;;;9.40;7.80;;;14.70;72.20;;;;;;5007336;28;20456;-69
2022/03/30 06:34:43;;;;;;;13.20;8.77;;;14.70;72.20;;;;;;5013950;28;20457;-68
2022/03/30 06:37:11;;;;;;;11.30;8.20;;;14.70;72.10;;;;;;5012422;28;20456;-68
2022/03/30 06:39:39;;;;;;;11.03;7.77;;;14.70;72.20;;;;;;4995542;28;20469;-68
2022/03/30 06:42:10;;;;;;;9.33;8.03;;;14.70;72.10;;;;;;5013463;28;20524;-68
2022/03/30 06:44:39;;;;;;;8.13;7.33;;;14.70;72.10;;;;;;5012846;28;20517;-69
2022/03/30 06:47:08;;;;;;;10.17;8.50;;;14.70;72.10;;;;;;5013309;28;20870;-68
2022/03/30 06:49:38;;;;;;;10.60;7.53;;;14.70;72.10;;;;;;5014415;28;20935;-69
2022/03/30 06:52:07;;;;;;;9.37;7.37;;;14.70;72.10;;;;;;5012660;28;20440;-67
2022/03/30 06:54:36;;;;;;;12.10;8.90;;;14.70;72.30;;;;;;5014294;28;20923;-68
2022/03/30 06:57:05;;;;;;;8.17;7.27;;;14.70;72.20;;;;;;5015083;28;20532;-68
2022/03/30 06:59:33;;;;;;;8.10;6.77;;;14.60;72.00;;;;;;5014856;28;20563;-68
2022/03/30 07:02:01;;;;;;;8.80;7.90;;;14.70;72.10;;;;;;5010275;28;20472;-68
2022/03/30 07:04:31;;;;;;;9.50;8.10;;;14.60;72.10;;;;;;5013977;28;20456;-67
2022/03/30 07:12:31;;;;;;;11.57;8.07;;;14.60;72.10;;;;;;5014285;28;20460;-68
2022/03/30 07:15:00;;;;;;;8.37;7.47;;;14.60;72.00;;;;;;5003749;28;20453;-67
2022/03/30 07:17:30;;;;;;;8.07;7.23;;;14.60;72.10;;;;;;5006086;28;20453;-67
2022/03/30 07:20:00;;;;;;;9.33;7.33;;;14.60;71.80;;;;;;5010346;28;20467;-67
2022/03/30 07:22:28;;;;;;;7.87;7.07;;;14.60;72.10;;;;;;5013125;28;20465;-68
2022/03/30 07:24:56;;;;;;;12.50;9.93;;;14.60;72.30;;;;;;5013598;28;20469;-67
2022/03/30 07:27:24;;;;;;;12.00;9.47;;;14.60;72.20;;;;;;5014472;28;20838;-68
2022/03/30 07:29:52;;;;;;;12.50;7.97;;;14.60;72.20;;;;;;5009128;28;20465;-69
2022/03/30 07:32:21;;;;;;;10.40;8.57;;;14.60;72.20;;;;;;4995759;28;20470;-68
2022/03/30 07:34:49;;;;;;;8.40;7.43;;;14.60;72.40;;;;;;5028676;28;20468;-69
2022/03/30 07:37:18;;;;;;;10.57;8.17;;;14.60;72.20;;;;;;5010982;28;21021;-69
2022/03/30 07:39:46;;;;;;;9.43;8.40;;;14.60;72.30;;;;;;5008167;28;20870;-67
2022/03/30 07:42:15;;;;;;;9.63;8.57;;;14.60;72.10;;;;;;5014208;28;20972;-69
2022/03/30 07:44:43;;;;;;;8.57;6.63;;;14.60;72.10;;;;;;5012086;28;20475;-68
2022/03/30 07:47:11;;;;;;;9.27;8.07;;;14.60;72.30;;;;;;5008503;28;20465;-68
2022/03/30 07:49:39;;;;;;;11.17;7.67;;;14.60;72.40;;;;;;5012927;28;20443;-68
2022/03/30 07:52:07;;;;;;;8.97;8.00;;;14.60;72.30;;;;;;5011899;28;20814;-68
2022/03/30 07:54:37;;;;;;;9.50;7.37;;;14.60;72.30;;;;;;5009067;28;20437;-67
2022/03/30 07:57:05;;;;;;;10.10;7.93;;;14.60;72.40;;;;;;5013289;28;20858;-68
2022/03/30 07:59:33;;;;;;;11.20;7.80;;;14.60;72.20;;;;;;5013517;28;20511;-68
2022/03/30 08:02:01;;;;;;;7.97;7.10;;;14.60;72.30;;;;;;4999100;28;20822;-68
2022/03/30 08:04:30;;;;;;;8.77;7.00;;;14.60;72.50;;;;;;5007361;28;20916;-68
2022/03/30 08:06:58;;;;;;;8.53;6.23;;;14.60;72.60;;;;;;5012876;28;20504;-69
2022/03/30 08:09:27;;;;;;;10.70;8.30;;;14.60;72.60;;;;;;5012200;28;20491;-67
2022/03/30 08:11:56;;;;;;;9.50;8.07;;;14.60;72.60;;;;;;5014012;28;20444;-68
2022/03/30 08:14:26;;;;;;;11.07;8.80;;;14.50;72.60;;;;;;5012722;28;20933;-68
2022/03/30 08:16:54;;;;;;;10.40;8.00;;;14.60;72.70;;;;;;4996128;28;20811;-68
2022/03/30 08:19:23;;;;;;;8.37;7.57;;;14.60;72.30;;;;;;5010863;28;20460;-68
2022/03/30 08:24:39;;;;;;;8.47;7.67;;;14.60;72.40;;;;;;5012216;28;20443;-68
2022/03/30 08:27:09;;;;;;;10.80;8.90;;;14.60;72.40;;;;;;5013319;28;20440;-68
2022/03/30 08:29:38;;;;;;;12.13;8.87;;;14.50;72.00;;;;;;5012894;28;20732;-67
2022/03/30 08:32:07;;;;;;;10.37;8.40;;;14.60;71.80;;;;;;5010250;28;20536;-67
2022/03/30 08:34:35;;;;;;;13.97;8.60;;;14.60;71.50;;;;;;5012298;28;20433;-67
2022/03/30 08:37:03;;;;;;;11.50;10.33;;;14.50;71.50;;;;;;5012275;28;20450;-69
2022/03/30 08:39:33;;;;;;;8.70;7.80;;;14.50;71.40;;;;;;5011145;28;20854;-69
2022/03/30 08:42:01;;;;;;;15.43;12.30;;;14.50;71.60;;;;;;5012992;28;20433;-68
2022/03/30 08:44:31;;;;;;;11.47;9.37;;;14.50;70.20;;;;;;5009687;28;20854;-68
2022/03/30 08:47:00;;;;;;;12.23;9.93;;;14.50;70.90;;;;;;5007616;28;20470;-68
2022/03/30 08:49:33;;;;;;;18.40;12.07;;;14.50;71.50;;;;;;4993470;28;20524;-68
2022/03/30 08:52:03;;;;;;;15.00;11.23;;;14.50;70.50;;;;;;5007666;28;20419;-67
2022/03/30 08:54:31;;;;;;;13.50;12.03;;;14.50;70.10;;;;;;4992593;28;20429;-68
2022/03/30 08:56:59;;;;;;;14.33;10.10;;;14.50;70.00;;;;;;4993603;28;20475;-69
2022/03/30 08:59:28;;;;;;;9.90;8.90;;;14.50;70.00;;;;;;4992775;28;20466;-69
2022/03/30 09:01:58;;;;;;;11.53;8.90;;;14.50;70.60;;;;;;4993644;28;20433;-68
2022/03/30 09:04:26;;;;;;;12.63;8.80;;;14.50;70.50;;;;;;5010012;28;20515;-69
2022/03/30 09:06:56;;;;;;;11.57;9.10;;;14.50;70.20;;;;;;5012766;28;20424;-67
2022/03/30 09:09:30;;;;;;;9.57;8.23;;;14.50;70.50;;;;;;4992987;28;20434;-68
2022/03/30 09:11:59;;;;;;;10.83;8.60;;;14.50;70.60;;;;;;4995321;28;20855;-69
2022/03/30 09:14:30;;;;;;;9.50;8.47;;;14.50;70.50;;;;;;4991570;28;20426;-68
2022/03/30 09:17:00;;;;;;;11.60;8.10;;;14.50;70.30;;;;;;4998920;28;20447;-69
2022/03/30 09:19:30;;;;;;;9.87;7.00;;;14.50;70.40;;;;;;5011958;28;20468;-69
2022/03/30 09:22:00;;;;;;;10.43;7.93;;;14.60;70.40;;;;;;5011874;28;20440;-67
2022/03/30 09:24:30;;;;;;;14.23;8.57;;;14.50;70.40;;;;;;4994224;28;20525;-68
2022/03/30 09:27:00;;;;;;;9.27;7.13;;;14.50;70.30;;;;;;5012255;28;20491;-67
2022/03/30 09:29:31;;;;;;;10.43;8.27;;;14.50;70.10;;;;;;5011350;28;20433;-68
2022/03/30 09:32:21;;;;;;;10.70;8.60;;;14.50;70.10;;;;;;5005727;28;20629;-68
2022/03/30 09:34:51;;;;;;;10.17;8.40;;;14.60;70.40;;;;;;5011705;28;20858;-68
2022/03/30 09:37:19;;;;;;;10.13;7.60;;;14.60;70.50;;;;;;5008785;28;20452;-67
2022/03/30 09:39:49;;;;;;;7.90;7.10;;;14.50;70.20;;;;;;5011823;28;20519;-67
2022/03/30 09:42:18;;;;;;;9.03;7.90;;;14.60;70.50;;;;;;5011840;28;20468;-68
2022/03/30 09:44:49;;;;;;;8.50;7.33;;;14.60;70.30;;;;;;5009489;28;20494;-71
2022/03/30 09:47:19;;;;;;;10.67;8.20;;;14.60;70.50;;;;;;5007258;28;20839;-69
2022/03/30 09:49:51;;;;;;;8.10;6.70;;;14.60;69.80;;;;;;5011841;28;20529;-66
2022/03/30 09:52:21;;;;;;;11.37;8.50;;;14.60;70.10;;;;;;5008232;28;20465;-68
2022/03/30 09:54:53;;;;;;;7.37;6.60;;;14.60;70.30;;;;;;4995256;28;20519;-75
2022/03/30 09:57:23;;;;;;;7.63;6.83;;;14.60;69.90;;;;;;5011001;28;20939;-74
2022/03/30 10:00:05;;;;;;;8.10;7.30;;;14.60;70.50;;;;;;4991677;28;21167;-74
2022/03/30 10:02:38;;;;;;;8.20;7.30;;;14.60;70.50;;;;;;4993942;28;20442;-74
2022/03/30 10:05:10;;;;;;;8.13;6.97;;;14.60;70.60;;;;;;5011066;28;20488;-73
2022/03/30 10:07:38;;;;;;;6.67;6.07;;;14.60;70.60;;;;;;5005045;28;20437;-74
2022/03/30 10:10:08;;;;;;;11.83;6.57;;;14.60;70.80;;;;;;4992159;28;20453;-74
2022/03/30 10:12:38;;;;;;;6.93;6.33;;;14.60;70.60;;;;;;5004728;28;20459;-73
2022/03/30 10:15:08;;;;;;;9.13;7.37;;;14.60;70.80;;;;;;5008839;28;20468;-74
2022/03/30 10:17:37;;;;;;;7.20;6.50;;;14.60;70.70;;;;;;5011621;28;20441;-73
2022/03/30 10:20:07;;;;;;;7.20;5.90;;;14.60;70.90;;;;;;5011581;28;20460;-73
2022/03/30 10:23:05;;;;;;;8.57;6.03;;;14.60;71.00;;;;;;5005053;28;20572;-73
2022/03/30 10:26:04;;;;;;;8.97;7.00;;;14.50;71.00;;;;;;4997635;28;20472;-73
2022/03/30 10:28:51;;;;;;;7.33;6.63;;;14.60;71.00;;;;;;5009161;28;20427;-73
2022/03/30 10:31:22;;;;;;;8.80;6.77;;;14.60;70.70;;;;;;5007690;28;20464;-74
2022/03/30 10:33:52;;;;;;;6.90;6.20;;;14.50;69.30;;;;;;4992148;28;20515;-75
2022/03/30 10:36:23;;;;;;;7.00;5.60;;;14.50;69.60;;;;;;4991684;28;20465;-74
2022/03/30 10:39:27;;;;;;;8.10;5.97;;;14.50;70.30;;;;;;4992067;28;20457;-73
2022/03/30 10:42:15;;;;;;;11.40;7.43;;;14.50;70.20;;;;;;5007534;28;20528;-74
2022/03/30 10:44:46;;;;;;;9.80;6.80;;;14.50;70.00;;;;;;4991782;28;20514;-73
2022/03/30 10:47:17;;;;;;;8.47;7.00;;;14.50;69.90;;;;;;4992018;28;20488;-74
2022/03/30 10:49:49;;;;;;;8.60;6.93;;;14.50;70.00;;;;;;4991655;28;20461;-73
2022/03/30 10:52:41;;;;;;;8.33;6.60;;;14.50;70.10;;;;;;4991785;28;20507;-74
2022/03/30 10:55:38;;;;;;;8.80;6.40;;;14.50;70.00;;;;;;4991678;28;20859;-74
2022/03/30 10:58:15;;;;;;;9.37;6.83;;;14.50;70.20;;;;;;4986650;28;20527;-74
2022/03/30 11:00:43;;;;;;;6.13;5.50;;;14.50;70.10;;;;;;4991489;28;20878;-73
2022/03/30 11:03:14;;;;;;;7.60;6.80;;;14.50;70.40;;;;;;4991933;28;21069;-73
2022/03/30 11:05:45;;;;;;;8.00;6.50;;;14.50;70.00;;;;;;4991308;28;20515;-74
2022/03/30 11:08:55;;;;;;;6.93;5.87;;;14.50;71.30;;;;;;4991813;28;20469;-74
2022/03/30 11:11:30;;;;;;;7.80;5.70;;;14.50;70.00;;;;;;5006646;28;20966;-74
2022/03/30 11:14:26;;;;;;;6.77;5.80;;;14.50;70.30;;;;;;4991849;28;20449;-74
2022/03/30 11:16:57;;;;;;;6.43;5.53;;;14.50;70.10;;;;;;4991461;28;20797;-73
2022/03/30 11:19:30;;;;;;;7.63;6.83;;;14.50;71.40;;;;;;5010253;28;20445;-74
2022/03/30 11:22:10;;;;;;;6.90;6.20;;;14.50;70.10;;;;;;5013840;28;20475;-74
2022/03/30 11:24:38;;;;;;;7.47;6.13;;;14.50;70.20;;;;;;4994765;28;20439;-74
2022/03/30 11:27:23;;;;;;;7.47;6.73;;;14.50;70.30;;;;;;4995480;28;20441;-74
2022/03/30 11:30:09;;;;;;;9.93;6.53;;;14.50;69.70;;;;;;4994682;28;20457;-74
2022/03/30 11:33:10;;;;;;;6.50;5.80;;;14.50;70.00;;;;;;4995323;28;20504;-74
2022/03/30 11:35:43;;;;;;;6.80;5.53;;;14.50;69.80;;;;;;4994348;28;20471;-74
2022/03/30 11:38:23;;;;;;;10.37;7.10;;;14.50;69.90;;;;;;4996270;28;20527;-73
2022/03/30 11:41:06;;;;;;;6.43;5.67;;;14.50;69.90;;;;;;4994509;28;20477;-74
2022/03/30 11:45:12;;;;;;;7.17;5.97;;;14.50;70.00;;;;;;4994898;28;20443;-73
2022/03/30 11:46:28;;;;;;;9.90;6.27;;;14.50;70.10;;;;;;4994179;28;20477;-74
2022/03/30 11:49:00;;;;;;;7.23;6.60;;;14.50;69.30;;;;;;4994848;28;20452;-73
2022/03/30 11:51:29;;;;;;;6.97;5.60;;;14.50;68.90;;;;;;4994464;28;20894;-74
2022/03/30 11:54:18;;;;;;;7.63;5.60;;;14.50;69.50;;;;;;4994543;28;20465;-73
2022/03/30 11:56:47;;;;;;;6.33;5.73;;;14.50;69.70;;;;;;4993960;28;21059;-73
2022/03/30 11:59:20;;;;;;;7.00;6.30;;;14.50;69.90;;;;;;4994940;28;20425;-74
2022/03/30 12:01:48;;;;;;;8.07;6.10;;;14.50;70.00;;;;;;4994755;28;20480;-71
2022/03/30 12:04:17;;;;;;;7.07;6.37;;;14.50;69.10;;;;;;4994292;28;20803;-73
2022/03/30 12:06:50;;;;;;;10.27;6.30;;;14.50;69.40;;;;;;4992842;28;20990;-71
2022/03/30 12:09:19;;;;;;;6.37;5.77;;;14.50;69.10;;;;;;4994342;28;20946;-74
2022/03/30 12:11:47;;;;;;;6.80;6.20;;;14.50;68.30;;;;;;4993954;28;20464;-74
2022/03/30 12:14:26;;;;;;;8.13;7.43;;;14.50;68.90;;;;;;4994265;28;20456;-73
2022/03/30 12:16:54;;;;;;;12.17;7.50;;;14.50;69.00;;;;;;4994383;28;20513;-74
2022/03/30 12:19:23;;;;;;;6.60;6.00;;;14.50;68.30;;;;;;4994255;28;20425;-74
2022/03/30 12:21:51;;;;;;;7.17;6.47;;;14.50;69.30;;;;;;4993732;28;20517;-73
2022/03/30 12:24:22;;;;;;;7.50;6.50;;;14.50;68.80;;;;;;4994153;28;20731;-72
2022/03/30 12:26:51;;;;;;;6.57;5.97;;;14.50;68.90;;;;;;5004161;28;20460;-74
2022/03/30 12:29:20;;;;;;;5.93;5.43;;;14.50;69.50;;;;;;5012562;28;20495;-74
2022/03/30 12:31:53;;;;;;;6.90;5.90;;;14.50;70.00;;;;;;4995345;28;20474;-75
2022/03/30 12:34:23;;;;;;;6.80;6.10;;;14.50;69.30;;;;;;4993849;28;20426;-74
2022/03/30 12:36:54;;;;;;;6.40;5.27;;;14.50;69.10;;;;;;4994008;28;20814;-74
2022/03/30 12:39:24;;;;;;;6.63;5.93;;;14.50;69.80;;;;;;4993919;28;20943;-74
2022/03/30 12:41:57;;;;;;;5.90;5.00;;;14.50;69.90;;;;;;4993580;28;20838;-73
2022/03/30 12:44:29;;;;;;;10.40;8.17;;;14.50;69.60;;;;;;4993486;28;20418;-75
2022/03/30 12:47:01;;;;;;;6.67;6.07;;;14.50;68.40;;;;;;4994136;28;20477;-73
2022/03/30 12:49:36;;;;;;;7.33;6.63;;;14.50;67.80;;;;;;4993365;28;20418;-75
2022/03/30 12:52:06;;;;;;;7.00;6.30;;;14.50;68.80;;;;;;4993528;28;20922;-73
2022/03/30 12:54:34;;;;;;;7.10;6.40;;;14.50;68.70;;;;;;4992847;28;20433;-74
2022/03/30 12:57:03;;;;;;;5.73;5.23;;;14.50;68.70;;;;;;4993466;28;20847;-74
2022/03/30 12:59:31;;;;;;;7.67;6.97;;;14.50;69.20;;;;;;4993160;28;20434;-74
2022/03/30 13:02:16;;;;;;;7.17;6.47;;;14.50;68.70;;;;;;4993396;28;20860;-74
2022/03/30 13:04:50;;;;;;;7.07;6.03;;;14.50;69.40;;;;;;4992979;28;20426;-74
2022/03/30 13:07:21;;;;;;;6.43;5.83;;;14.50;69.80;;;;;;4993143;28;20442;-73
2022/03/30 13:10:06;;;;;;;6.17;5.57;;;14.50;69.60;;;;;;4992859;28;20888;-74